Msm Dolores — 5BQF3 — position and weather

sailwx.info

Track history (hours):
 
Tides and Currents Weather Stations Pressure Air Temp Water Temp Dewpoint Dewpoint Depression Visibility Wind Speed Wind Dir Waves Ship Positions

Msm Dolores

Last reported at 2017-Nov-10 16:34 UTC. Time now 2017-Nov-21 10:20 UTC.
Position N 24°32' W 016°27'.
Warning: this ship's position is 10 days out of date.

Length 110 m; draft 5.8 m.

Type: Ship (hazmat cat A). MMSI: 210047000.

Date/timePositionNaut miles runAvg speedWind from/ knotsBaromVisibWave heightAir tempDewpointWater temp
2017-Nov-10 16:34N 24°32' W 016°27'1 9.6
2017-Nov-10 16:30N 24°32' W 016°27'5 9.5
2017-Nov-10 15:58N 24°37' W 016°25'4 9.2
2017-Nov-10 15:30N 24°41' W 016°22'5 9.5
2017-Nov-10 15:00N 24°45' W 016°20'5 9.8
2017-Nov-10 14:30N 24°50' W 016°18'5 9.7
2017-Nov-10 14:00N 24°54' W 016°16'5 9.6
2017-Nov-10 13:30N 24°58' W 016°14'5 8.8
2017-Nov-10 12:57N 25°03' W 016°13'4 9.4
2017-Nov-10 12:30N 25°07' W 016°11'5 9.3
2017-Nov-10 12:00N 25°11' W 016°09'5 9.2
2017-Nov-10 11:30N 25°16' W 016°07'6 9.1
2017-Nov-10 10:48N 25°21' W 016°03'143 9.5
2017-Nov-09 19:47N 27°10' W 014°19'5 9.6
2017-Nov-09 19:19N 27°13' W 014°15'3 9.5
2017-Nov-09 18:59N 27°15' W 014°13'5 9.6
2017-Nov-09 18:30N 27°19' W 014°10'5 9.9
2017-Nov-09 17:59N 27°23' W 014°06'510.4
2017-Nov-09 17:30N 27°26' W 014°02'510.3
2017-Nov-09 17:00N 27°30' W 013°58'710.4
2017-Nov-09 16:18N 27°36' W 013°53'310.3
2017-Nov-09 16:00N 27°38' W 013°51'510.1
2017-Nov-09 15:30N 27°42' W 013°47'510.0
2017-Nov-09 15:00N 27°46' W 013°43'5 9.8
2017-Nov-09 14:30N 27°49' W 013°40'5 9.7
2017-Nov-09 14:00N 27°53' W 013°36'10 9.6
2017-Nov-09 13:00N 28°01' W 013°30'5 9.3
2017-Nov-09 12:30N 28°04' W 013°26'5 9.4
2017-Nov-09 12:00N 28°08' W 013°23'5 9.8
2017-Nov-09 11:30N 28°12' W 013°19'5 9.4
2017-Nov-09 11:00N 28°14' W 013°15'5 9.6
2017-Nov-09 10:30N 28°18' W 013°11'5 9.4
2017-Nov-09 10:00N 28°22' W 013°08'31 9.1
2017-Nov-09 06:36N 28°46' W 012°46'1 9.0
2017-Nov-09 06:28N 28°47' W 012°45'20 8.6
2017-Nov-09 04:08N 29°02' W 012°30'1 8.3
2017-Nov-09 03:59N 29°03' W 012°29'5 8.4
2017-Nov-09 03:21N 29°07' W 012°25'3 8.4
2017-Nov-09 02:57N 29°09' W 012°23'4 8.5
2017-Nov-09 02:30N 29°12' W 012°20'4 8.8
2017-Nov-09 02:00N 29°15' W 012°16'10 9.0
2017-Nov-09 00:56N 29°22' W 012°09'38 9.2
2017-Nov-08 20:44N 29°50' W 011°38'104 8.9
2017-Nov-08 09:03N 31°11' W 010°22'0 8.8
2017-Nov-08 09:00N 31°11' W 010°22'5 9.3
2017-Nov-08 08:30N 31°14' W 010°18'  
2017-Nov-04 07:22N 37°51' W 009°39'4 9.9
2017-Nov-04 06:57N 37°55' W 009°39'4 9.6
2017-Nov-04 06:30N 37°59' W 009°37'510.1
2017-Nov-04 06:00N 38°04' W 009°36'510.1
2017-Nov-04 05:30N 38°09' W 009°34'510.2
2017-Nov-04 05:00N 38°14' W 009°32'510.0
2017-Nov-04 04:30N 38°19' W 009°30'5 9.7
2017-Nov-04 04:00N 38°23' W 009°27'5 9.2
2017-Nov-04 03:30N 38°27' W 009°24'510.0
2017-Nov-04 03:00N 38°32' W 009°23'510.3
2017-Nov-04 02:30N 38°37' W 009°22'4 8.6
2017-Nov-04 02:00N 38°40' W 009°18'4 7.6
2017-Nov-04 01:30N 38°41' W 009°14'3 7.0
2017-Nov-04 01:00N 38°42' W 009°09'4 0.6
2017-Nov-03 18:47N 38°44' W 009°06'0 0.0
2017-Nov-03 18:20N 38°44' W 009°06'0 0.0
2017-Nov-03 16:32N 38°44' W 009°06'0 0.3
2017-Nov-03 16:18N 38°44' W 009°06'1 0.1
2017-Nov-03 04:18N 38°43' W 009°06'0 0.0
2017-Nov-03 03:42N 38°43' W 009°06'0 0.0
2017-Nov-03 03:24N 38°43' W 009°06'0 0.0
2017-Nov-02 14:27N 38°44' W 009°06'0 0.0
2017-Nov-02 14:00N 38°43' W 009°06'0 0.0
2017-Nov-02 12:51N 38°43' W 009°06'0 0.0
2017-Nov-02 11:36N 38°43' W 009°06'0 0.0
2017-Nov-02 11:20N 38°43' W 009°06'1 1.9
2017-Nov-02 11:00N 38°43' W 009°07'611.0
2017-Nov-02 10:29N 38°41' W 009°14'5 9.3
2017-Nov-02 10:00N 38°40' W 009°19'510.1
2017-Nov-02 09:30N 38°36' W 009°23'5 9.8
2017-Nov-02 09:00N 38°31' W 009°25'5 9.6
2017-Nov-02 08:30N 38°27' W 009°28'510.3
2017-Nov-02 08:00N 38°22' W 009°30'510.5
2017-Nov-02 07:30N 38°17' W 009°32'610.6
2017-Nov-02 06:55N 38°11' W 009°35'410.4
2017-Nov-02 06:30N 38°07' W 009°37'610.4
2017-Nov-02 05:54N 38°02' W 009°41'38410.4
2017-Oct-31 17:06N 32°11' W 012°51'  
Track history (hours):
 
Tides and Currents Weather Stations Pressure Air Temp Water Temp Dewpoint Dewpoint Depression Visibility Wind Speed Wind Dir Waves Ship Positions

Msm Dolores

Last reported at 2017-Nov-10 16:34 UTC. Time now 2017-Nov-21 10:20 UTC.
Position N 24°32' W 016°27'.
Warning: this ship's position is 10 days out of date.

Length 110 m; draft 5.8 m.

Type: Ship (hazmat cat A). MMSI: 210047000.

Date/timePositionNaut miles runAvg speedWind from/ knotsBaromVisibWave heightAir tempDewpointWater temp
2017-Nov-10 16:34N 24°32' W 016°27'1 9.6
2017-Nov-10 16:30N 24°32' W 016°27'5 9.5
2017-Nov-10 15:58N 24°37' W 016°25'4 9.2
2017-Nov-10 15:30N 24°41' W 016°22'5 9.5
2017-Nov-10 15:00N 24°45' W 016°20'5 9.8
2017-Nov-10 14:30N 24°50' W 016°18'5 9.7
2017-Nov-10 14:00N 24°54' W 016°16'5 9.6
2017-Nov-10 13:30N 24°58' W 016°14'5 8.8
2017-Nov-10 12:57N 25°03' W 016°13'4 9.4
2017-Nov-10 12:30N 25°07' W 016°11'5 9.3
2017-Nov-10 12:00N 25°11' W 016°09'5 9.2
2017-Nov-10 11:30N 25°16' W 016°07'6 9.1
2017-Nov-10 10:48N 25°21' W 016°03'143 9.5
2017-Nov-09 19:47N 27°10' W 014°19'5 9.6
2017-Nov-09 19:19N 27°13' W 014°15'3 9.5
2017-Nov-09 18:59N 27°15' W 014°13'5 9.6
2017-Nov-09 18:30N 27°19' W 014°10'5 9.9
2017-Nov-09 17:59N 27°23' W 014°06'510.4
2017-Nov-09 17:30N 27°26' W 014°02'510.3
2017-Nov-09 17:00N 27°30' W 013°58'710.4
2017-Nov-09 16:18N 27°36' W 013°53'310.3
2017-Nov-09 16:00N 27°38' W 013°51'510.1
2017-Nov-09 15:30N 27°42' W 013°47'510.0
2017-Nov-09 15:00N 27°46' W 013°43'5 9.8
2017-Nov-09 14:30N 27°49' W 013°40'5 9.7
2017-Nov-09 14:00N 27°53' W 013°36'10 9.6
2017-Nov-09 13:00N 28°01' W 013°30'5 9.3
2017-Nov-09 12:30N 28°04' W 013°26'5 9.4
2017-Nov-09 12:00N 28°08' W 013°23'5 9.8
2017-Nov-09 11:30N 28°12' W 013°19'5 9.4
2017-Nov-09 11:00N 28°14' W 013°15'5 9.6
2017-Nov-09 10:30N 28°18' W 013°11'5 9.4
2017-Nov-09 10:00N 28°22' W 013°08'31 9.1
2017-Nov-09 06:36N 28°46' W 012°46'1 9.0
2017-Nov-09 06:28N 28°47' W 012°45'20 8.6
2017-Nov-09 04:08N 29°02' W 012°30'1 8.3
2017-Nov-09 03:59N 29°03' W 012°29'5 8.4
2017-Nov-09 03:21N 29°07' W 012°25'3 8.4
2017-Nov-09 02:57N 29°09' W 012°23'4 8.5
2017-Nov-09 02:30N 29°12' W 012°20'4 8.8
2017-Nov-09 02:00N 29°15' W 012°16'10 9.0
2017-Nov-09 00:56N 29°22' W 012°09'38 9.2
2017-Nov-08 20:44N 29°50' W 011°38'104 8.9
2017-Nov-08 09:03N 31°11' W 010°22'0 8.8
2017-Nov-08 09:00N 31°11' W 010°22'5 9.3
2017-Nov-08 08:30N 31°14' W 010°18'  
2017-Nov-04 07:22N 37°51' W 009°39'4 9.9
2017-Nov-04 06:57N 37°55' W 009°39'4 9.6
2017-Nov-04 06:30N 37°59' W 009°37'510.1
2017-Nov-04 06:00N 38°04' W 009°36'510.1
2017-Nov-04 05:30N 38°09' W 009°34'510.2
2017-Nov-04 05:00N 38°14' W 009°32'510.0
2017-Nov-04 04:30N 38°19' W 009°30'5 9.7
2017-Nov-04 04:00N 38°23' W 009°27'5 9.2
2017-Nov-04 03:30N 38°27' W 009°24'510.0
2017-Nov-04 03:00N 38°32' W 009°23'510.3
2017-Nov-04 02:30N 38°37' W 009°22'4 8.6
2017-Nov-04 02:00N 38°40' W 009°18'4 7.6
2017-Nov-04 01:30N 38°41' W 009°14'3 7.0
2017-Nov-04 01:00N 38°42' W 009°09'4 0.6
2017-Nov-03 18:47N 38°44' W 009°06'0 0.0
2017-Nov-03 18:20N 38°44' W 009°06'0 0.0
2017-Nov-03 16:32N 38°44' W 009°06'0 0.3
2017-Nov-03 16:18N 38°44' W 009°06'1 0.1
2017-Nov-03 04:18N 38°43' W 009°06'0 0.0
2017-Nov-03 03:42N 38°43' W 009°06'0 0.0
2017-Nov-03 03:24N 38°43' W 009°06'0 0.0
2017-Nov-02 14:27N 38°44' W 009°06'0 0.0
2017-Nov-02 14:00N 38°43' W 009°06'0 0.0
2017-Nov-02 12:51N 38°43' W 009°06'0 0.0
2017-Nov-02 11:36N 38°43' W 009°06'0 0.0
2017-Nov-02 11:20N 38°43' W 009°06'1 1.9
2017-Nov-02 11:00N 38°43' W 009°07'611.0
2017-Nov-02 10:29N 38°41' W 009°14'5 9.3
2017-Nov-02 10:00N 38°40' W 009°19'510.1
2017-Nov-02 09:30N 38°36' W 009°23'5 9.8
2017-Nov-02 09:00N 38°31' W 009°25'5 9.6
2017-Nov-02 08:30N 38°27' W 009°28'510.3
2017-Nov-02 08:00N 38°22' W 009°30'510.5
2017-Nov-02 07:30N 38°17' W 009°32'610.6
2017-Nov-02 06:55N 38°11' W 009°35'410.4
2017-Nov-02 06:30N 38°07' W 009°37'610.4
2017-Nov-02 05:54N 38°02' W 009°41'38410.4
2017-Oct-31 17:06N 32°11' W 012°51'  

Dump ship's entire track history